sensor_id;sensor_type;location;lat;lon;timestamp;pressure;altitude;pressure_sealevel;temperature;humidity
73429;BME280;61643;49.564;17.412;2023-09-30T00:00:58;98507.72;;;14.55;100.00
73429;BME280;61643;49.564;17.412;2023-09-30T00:03:24;98524.78;;;14.60;100.00
73429;BME280;61643;49.564;17.412;2023-09-30T00:05:50;98525.03;;;14.59;100.00
73429;BME280;61643;49.564;17.412;2023-09-30T00:08:16;98520.44;;;14.59;100.00
73429;BME280;61643;49.564;17.412;2023-09-30T00:10:42;98513.13;;;14.65;100.00
73429;BME280;61643;49.564;17.412;2023-09-30T00:13:08;98514.72;;;14.71;100.00
73429;BME280;61643;49.564;17.412;2023-09-30T00:15:34;98509.81;;;14.78;100.00
73429;BME280;61643;49.564;17.412;2023-09-30T00:18:01;98514.13;;;14.84;100.00
73429;BME280;61643;49.564;17.412;2023-09-30T00:20:28;98515.50;;;14.82;100.00
73429;BME280;61643;49.564;17.412;2023-09-30T00:22:54;98513.66;;;14.72;100.00
73429;BME280;61643;49.564;17.412;2023-09-30T00:25:19;98513.09;;;14.70;100.00
73429;BME280;61643;49.564;17.412;2023-09-30T00:27:47;98511.22;;;14.65;100.00
73429;BME280;61643;49.564;17.412;2023-09-30T00:30:13;98503.09;;;14.60;100.00
73429;BME280;61643;49.564;17.412;2023-09-30T00:32:39;98502.00;;;14.66;100.00
73429;BME280;61643;49.564;17.412;2023-09-30T00:35:06;98509.59;;;14.64;100.00
73429;BME280;61643;49.564;17.412;2023-09-30T00:37:42;98508.75;;;14.69;100.00
73429;BME280;61643;49.564;17.412;2023-09-30T00:40:08;98507.16;;;14.68;100.00
73429;BME280;61643;49.564;17.412;2023-09-30T00:42:41;98504.16;;;14.69;100.00
73429;BME280;61643;49.564;17.412;2023-09-30T00:45:07;98505.78;;;14.70;100.00
73429;BME280;61643;49.564;17.412;2023-09-30T00:47:37;98499.03;;;14.58;100.00
73429;BME280;61643;49.564;17.412;2023-09-30T00:50:05;98503.38;;;14.59;100.00
73429;BME280;61643;49.564;17.412;2023-09-30T00:52:35;98511.75;;;14.67;100.00
73429;BME280;61643;49.564;17.412;2023-09-30T00:55:01;98511.19;;;14.70;100.00
73429;BME280;61643;49.564;17.412;2023-09-30T00:57:29;98508.22;;;14.72;100.00
73429;BME280;61643;49.564;17.412;2023-09-30T00:59:56;98510.38;;;14.70;100.00
73429;BME280;61643;49.564;17.412;2023-09-30T01:02:22;98500.94;;;14.62;100.00
73429;BME280;61643;49.564;17.412;2023-09-30T01:04:49;98504.72;;;14.66;100.00
73429;BME280;61643;49.564;17.412;2023-09-30T01:07:15;98498.25;;;14.57;100.00
73429;BME280;61643;49.564;17.412;2023-09-30T01:09:41;98502.56;;;14.58;100.00
73429;BME280;61643;49.564;17.412;2023-09-30T01:12:07;98494.72;;;14.57;100.00
73429;BME280;61643;49.564;17.412;2023-09-30T01:14:35;98489.28;;;14.62;100.00
73429;BME280;61643;49.564;17.412;2023-09-30T01:17:01;98491.97;;;14.67;100.00
73429;BME280;61643;49.564;17.412;2023-09-30T01:19:27;98492.50;;;14.69;100.00
73429;BME280;61643;49.564;17.412;2023-09-30T01:21:55;98491.16;;;14.71;100.00
73429;BME280;61643;49.564;17.412;2023-09-30T01:24:46;98500.63;;;14.74;100.00
73429;BME280;61643;49.564;17.412;2023-09-30T01:27:13;98494.38;;;14.73;100.00
73429;BME280;61643;49.564;17.412;2023-09-30T01:29:39;98492.78;;;14.62;100.00
73429;BME280;61643;49.564;17.412;2023-09-30T01:32:05;98500.38;;;14.70;100.00
73429;BME280;61643;49.564;17.412;2023-09-30T01:34:36;98501.69;;;14.73;100.00
73429;BME280;61643;49.564;17.412;2023-09-30T01:37:02;98499.81;;;14.73;100.00
73429;BME280;61643;49.564;17.412;2023-09-30T01:39:28;98499.28;;;14.71;100.00
73429;BME280;61643;49.564;17.412;2023-09-30T01:41:55;98493.88;;;14.71;100.00
73429;BME280;61643;49.564;17.412;2023-09-30T01:44:21;98497.09;;;14.73;100.00
73429;BME280;61643;49.564;17.412;2023-09-30T01:46:47;98500.34;;;14.75;100.00
73429;BME280;61643;49.564;17.412;2023-09-30T01:49:13;98506.03;;;14.74;100.00
73429;BME280;61643;49.564;17.412;2023-09-30T01:51:39;98503.34;;;14.74;100.00
73429;BME280;61643;49.564;17.412;2023-09-30T01:54:05;98500.06;;;14.82;100.00
73429;BME280;61643;49.564;17.412;2023-09-30T01:56:31;98503.03;;;14.86;100.00
73429;BME280;61643;49.564;17.412;2023-09-30T01:58:58;98509.78;;;14.88;100.00
73429;BME280;61643;49.564;17.412;2023-09-30T02:01:24;98507.88;;;14.89;100.00
73429;BME280;61643;49.564;17.412;2023-09-30T02:03:50;98503.84;;;14.86;100.00
73429;BME280;61643;49.564;17.412;2023-09-30T02:06:16;98499.75;;;14.89;100.00
73429;BME280;61643;49.564;17.412;2023-09-30T02:08:42;98504.66;;;14.82;100.00
73429;BME280;61643;49.564;17.412;2023-09-30T02:11:10;98509.25;;;14.86;100.00
73429;BME280;61643;49.564;17.412;2023-09-30T02:13:39;98513.88;;;14.86;100.00
73429;BME280;61643;49.564;17.412;2023-09-30T02:16:11;98518.47;;;14.85;100.00
73429;BME280;61643;49.564;17.412;2023-09-30T02:18:38;98516.06;;;14.78;100.00
73429;BME280;61643;49.564;17.412;2023-09-30T02:21:04;98517.91;;;14.83;100.00
73429;BME280;61643;49.564;17.412;2023-09-30T02:23:30;98510.09;;;14.76;100.00
73429;BME280;61643;49.564;17.412;2023-09-30T02:25:56;98507.16;;;14.63;100.00
73429;BME280;61643;49.564;17.412;2023-09-30T02:28:22;98493.34;;;14.59;100.00
73429;BME280;61643;49.564;17.412;2023-09-30T02:30:48;98500.88;;;14.72;100.00
73429;BME280;61643;49.564;17.412;2023-09-30T02:33:14;98487.34;;;14.77;100.00
73429;BME280;61643;49.564;17.412;2023-09-30T02:35:44;98480.78;;;14.84;100.00
73429;BME280;61643;49.564;17.412;2023-09-30T02:38:11;98488.09;;;14.88;100.00
73429;BME280;61643;49.564;17.412;2023-09-30T02:40:37;98482.66;;;14.93;100.00
73429;BME280;61643;49.564;17.412;2023-09-30T02:43:04;98475.63;;;14.92;100.00
73429;BME280;61643;49.564;17.412;2023-09-30T02:45:30;98489.69;;;14.94;100.00
73429;BME280;61643;49.564;17.412;2023-09-30T02:47:56;98490.25;;;14.96;100.00
73429;BME280;61643;49.564;17.412;2023-09-30T02:50:22;98486.19;;;14.89;100.00
73429;BME280;61643;49.564;17.412;2023-09-30T02:52:48;98471.38;;;14.71;100.00
73429;BME280;61643;49.564;17.412;2023-09-30T02:55:15;98478.94;;;14.69;100.00
73429;BME280;61643;49.564;17.412;2023-09-30T02:57:41;98491.16;;;14.71;100.00
73429;BME280;61643;49.564;17.412;2023-09-30T03:00:09;98491.97;;;14.72;100.00
73429;BME280;61643;49.564;17.412;2023-09-30T03:02:55;98499.28;;;14.71;100.00
73429;BME280;61643;49.564;17.412;2023-09-30T03:05:22;98499.00;;;14.73;100.00
73429;BME280;61643;49.564;17.412;2023-09-30T03:07:49;98491.97;;;14.62;100.00
73429;BME280;61643;49.564;17.412;2023-09-30T03:10:18;98482.78;;;14.63;100.00
73429;BME280;61643;49.564;17.412;2023-09-30T03:12:53;98481.91;;;14.72;100.00
73429;BME280;61643;49.564;17.412;2023-09-30T03:15:19;98476.25;;;14.74;100.00
73429;BME280;61643;49.564;17.412;2023-09-30T03:17:45;98463.75;;;14.78;100.00
73429;BME280;61643;49.564;17.412;2023-09-30T03:20:11;98467.22;;;14.89;100.00
73429;BME280;61643;49.564;17.412;2023-09-30T03:22:42;98447.44;;;14.88;100.00
73429;BME280;61643;49.564;17.412;2023-09-30T03:25:10;98468.25;;;14.98;100.00
73429;BME280;61643;49.564;17.412;2023-09-30T03:27:37;98466.91;;;15.00;100.00
73429;BME280;61643;49.564;17.412;2023-09-30T03:30:05;98462.88;;;14.88;100.00
73429;BME280;61643;49.564;17.412;2023-09-30T03:32:31;98460.19;;;14.88;100.00
73429;BME280;61643;49.564;17.412;2023-09-30T03:34:59;98462.63;;;14.84;100.00
73429;BME280;61643;49.564;17.412;2023-09-30T03:37:27;98474.28;;;14.85;100.00
73429;BME280;61643;49.564;17.412;2023-09-30T03:39:57;98479.72;;;14.79;100.00
73429;BME280;61643;49.564;17.412;2023-09-30T03:42:23;98481.69;;;14.64;100.00
73429;BME280;61643;49.564;17.412;2023-09-30T03:44:49;98492.53;;;14.64;100.00
73429;BME280;61643;49.564;17.412;2023-09-30T03:47:16;98504.16;;;14.69;100.00
73429;BME280;61643;49.564;17.412;2023-09-30T03:49:42;98502.81;;;14.67;100.00
73429;BME280;61643;49.564;17.412;2023-09-30T03:52:11;98498.47;;;14.66;100.00
73429;BME280;61643;49.564;17.412;2023-09-30T03:54:37;98470.91;;;14.44;100.00
73429;BME280;61643;49.564;17.412;2023-09-30T03:57:03;98498.53;;;14.46;100.00
73429;BME280;61643;49.564;17.412;2023-09-30T03:59:30;98498.28;;;14.42;100.00
73429;BME280;61643;49.564;17.412;2023-09-30T04:01:56;98465.78;;;14.22;100.00
73429;BME280;61643;49.564;17.412;2023-09-30T04:04:24;98517.47;;;14.51;100.00
73429;BME280;61643;49.564;17.412;2023-09-30T04:06:51;98517.22;;;14.57;100.00
73429;BME280;61643;49.564;17.412;2023-09-30T04:09:17;98516.91;;;14.59;100.00
73429;BME280;61643;49.564;17.412;2023-09-30T04:11:43;98525.59;;;14.61;100.00
73429;BME280;61643;49.564;17.412;2023-09-30T04:14:10;98520.47;;;14.49;100.00
73429;BME280;61643;49.564;17.412;2023-09-30T04:16:36;98512.56;;;14.58;100.00
73429;BME280;61643;49.564;17.412;2023-09-30T04:19:03;98512.56;;;14.63;100.00
73429;BME280;61643;49.564;17.412;2023-09-30T04:21:30;98507.72;;;14.65;100.00
73429;BME280;61643;49.564;17.412;2023-09-30T04:23:59;98513.13;;;14.65;100.00
73429;BME280;61643;49.564;17.412;2023-09-30T04:26:27;98502.00;;;14.71;100.00
73429;BME280;61643;49.564;17.412;2023-09-30T04:28:53;98508.75;;;14.74;100.00
73429;BME280;61643;49.564;17.412;2023-09-30T04:31:19;98507.41;;;14.66;100.00
73429;BME280;61643;49.564;17.412;2023-09-30T04:33:48;98511.22;;;14.65;100.00
73429;BME280;61643;49.564;17.412;2023-09-30T04:36:13;98512.56;;;14.68;100.00
73429;BME280;61643;49.564;17.412;2023-09-30T04:38:39;98510.13;;;14.66;100.00
73429;BME280;61643;49.564;17.412;2023-09-30T04:41:05;98513.66;;;14.67;100.00
73429;BME280;61643;49.564;17.412;2023-09-30T04:43:33;98520.44;;;14.64;100.00
73429;BME280;61643;49.564;17.412;2023-09-30T04:45:59;98524.75;;;14.65;100.00
73429;BME280;61643;49.564;17.412;2023-09-30T04:48:26;98527.72;;;14.69;100.00
73429;BME280;61643;49.564;17.412;2023-09-30T04:50:52;98525.03;;;14.64;100.00
73429;BME280;61643;49.564;17.412;2023-09-30T04:53:18;98524.50;;;14.62;100.00
73429;BME280;61643;49.564;17.412;2023-09-30T04:55:44;98535.88;;;14.64;100.00
73429;BME280;61643;49.564;17.412;2023-09-30T04:58:11;98542.94;;;14.65;100.00
73429;BME280;61643;49.564;17.412;2023-09-30T05:00:38;98540.75;;;14.62;100.00
73429;BME280;61643;49.564;17.412;2023-09-30T05:03:05;98553.47;;;14.61;100.00
73429;BME280;61643;49.564;17.412;2023-09-30T05:05:31;98560.00;;;14.60;100.00
73429;BME280;61643;49.564;17.412;2023-09-30T05:07:57;98562.41;;;14.67;100.00
73429;BME280;61643;49.564;17.412;2023-09-30T05:10:24;98566.22;;;14.66;100.00
73429;BME280;61643;49.564;17.412;2023-09-30T05:12:50;98570.28;;;14.63;100.00
73429;BME280;61643;49.564;17.412;2023-09-30T05:15:20;98575.69;;;14.68;100.00
73429;BME280;61643;49.564;17.412;2023-09-30T05:17:47;98581.41;;;14.57;100.00
73429;BME280;61643;49.564;17.412;2023-09-30T05:20:14;98589.50;;;14.62;100.00
73429;BME280;61643;49.564;17.412;2023-09-30T05:22:43;98584.91;;;14.62;100.00
73429;BME280;61643;49.564;17.412;2023-09-30T05:25:16;98576.00;;;14.52;100.00
73429;BME280;61643;49.564;17.412;2023-09-30T05:27:45;98585.47;;;14.49;100.00
73429;BME280;61643;49.564;17.412;2023-09-30T05:30:13;98592.78;;;14.49;100.00
73429;BME280;61643;49.564;17.412;2023-09-30T05:32:41;98592.78;;;14.54;100.00
73429;BME280;61643;49.564;17.412;2023-09-30T05:35:07;98600.91;;;14.49;100.00
73429;BME280;61643;49.564;17.412;2023-09-30T05:37:43;98606.31;;;14.49;100.00
73429;BME280;61643;49.564;17.412;2023-09-30T05:40:11;98607.94;;;14.45;100.00
73429;BME280;61643;49.564;17.412;2023-09-30T05:42:48;98604.44;;;14.44;100.00
73429;BME280;61643;49.564;17.412;2023-09-30T05:45:16;98603.59;;;14.44;100.00
73429;BME280;61643;49.564;17.412;2023-09-30T05:47:43;98603.06;;;14.37;100.00
73429;BME280;61643;49.564;17.412;2023-09-30T05:50:10;98605.78;;;14.37;100.00
73429;BME280;61643;49.564;17.412;2023-09-30T05:52:41;98612.78;;;14.32;100.00
73429;BME280;61643;49.564;17.412;2023-09-30T05:55:07;98606.56;;;14.22;100.00
73429;BME280;61643;49.564;17.412;2023-09-30T05:57:33;98599.53;;;14.11;100.00
73429;BME280;61643;49.564;17.412;2023-09-30T06:00:01;98611.72;;;14.13;100.00
73429;BME280;61643;49.564;17.412;2023-09-30T06:02:28;98607.66;;;14.21;100.00
73429;BME280;61643;49.564;17.412;2023-09-30T06:04:55;98612.25;;;14.25;100.00
73429;BME280;61643;49.564;17.412;2023-09-30T06:07:22;98605.78;;;14.21;100.00
73429;BME280;61643;49.564;17.412;2023-09-30T06:09:48;98616.03;;;14.29;100.00
73429;BME280;61643;49.564;17.412;2023-09-30T06:12:15;98620.69;;;14.34;100.00
73429;BME280;61643;49.564;17.412;2023-09-30T06:14:41;98615.00;;;14.36;100.00
73429;BME280;61643;49.564;17.412;2023-09-30T06:17:07;98626.94;;;14.40;100.00
73429;BME280;61643;49.564;17.412;2023-09-30T06:19:34;98632.34;;;14.40;100.00
73429;BME280;61643;49.564;17.412;2023-09-30T06:22:00;98635.84;;;14.35;100.00
73429;BME280;61643;49.564;17.412;2023-09-30T06:24:27;98636.09;;;14.34;100.00
73429;BME280;61643;49.564;17.412;2023-09-30T06:26:53;98642.03;;;14.25;100.00
73429;BME280;61643;49.564;17.412;2023-09-30T06:29:19;98648.53;;;14.19;100.00
73429;BME280;61643;49.564;17.412;2023-09-30T06:31:45;98643.94;;;14.25;100.00
73429;BME280;61643;49.564;17.412;2023-09-30T06:34:12;98656.13;;;14.32;100.00
73429;BME280;61643;49.564;17.412;2023-09-30T06:36:38;98655.88;;;14.34;100.00
73429;BME280;61643;49.564;17.412;2023-09-30T06:39:04;98661.06;;;14.36;100.00
73429;BME280;61643;49.564;17.412;2023-09-30T06:41:31;98654.75;;;14.15;100.00
73429;BME280;61643;49.564;17.412;2023-09-30T06:43:57;98651.81;;;14.21;100.00
73429;BME280;61643;49.564;17.412;2023-09-30T06:46:24;98651.78;;;14.26;100.00
73429;BME280;61643;49.564;17.412;2023-09-30T06:48:50;98649.09;;;14.32;100.00
73429;BME280;61643;49.564;17.412;2023-09-30T06:51:17;98659.38;;;14.29;100.00
73429;BME280;61643;49.564;17.412;2023-09-30T06:53:44;98662.06;;;14.29;100.00
73429;BME280;61643;49.564;17.412;2023-09-30T06:56:11;98658.56;;;14.29;100.00
73429;BME280;61643;49.564;17.412;2023-09-30T06:58:38;98660.75;;;14.32;100.00
73429;BME280;61643;49.564;17.412;2023-09-30T07:01:05;98668.06;;;14.37;100.00
73429;BME280;61643;49.564;17.412;2023-09-30T07:03:31;98661.59;;;14.43;100.00
73429;BME280;61643;49.564;17.412;2023-09-30T07:05:58;98671.31;;;14.44;100.00
73429;BME280;61643;49.564;17.412;2023-09-30T07:08:27;98673.25;;;14.43;100.00
73429;BME280;61643;49.564;17.412;2023-09-30T07:10:55;98671.34;;;14.39;100.00
73429;BME280;61643;49.564;17.412;2023-09-30T07:13:22;98673.50;;;14.42;100.00
73429;BME280;61643;49.564;17.412;2023-09-30T07:15:48;98684.34;;;14.42;100.00
73429;BME280;61643;49.564;17.412;2023-09-30T07:18:15;98677.81;;;14.38;100.00
73429;BME280;61643;49.564;17.412;2023-09-30T07:20:41;98682.44;;;14.37;100.00
73429;BME280;61643;49.564;17.412;2023-09-30T07:23:06;98677.28;;;14.36;100.00
73429;BME280;61643;49.564;17.412;2023-09-30T07:25:34;98680.00;;;14.36;100.00
73429;BME280;61643;49.564;17.412;2023-09-30T07:28:01;98691.09;;;14.49;100.00
73429;BME280;61643;49.564;17.412;2023-09-30T07:30:27;98677.81;;;14.58;100.00
73429;BME280;61643;49.564;17.412;2023-09-30T07:32:53;98686.78;;;14.68;100.00
73429;BME280;61643;49.564;17.412;2023-09-30T07:35:19;98691.38;;;14.68;100.00
73429;BME280;61643;49.564;17.412;2023-09-30T07:37:45;98691.38;;;14.73;100.00
73429;BME280;61643;49.564;17.412;2023-09-30T07:40:12;98691.38;;;14.73;100.00
73429;BME280;61643;49.564;17.412;2023-09-30T07:42:38;98692.44;;;14.62;100.00
73429;BME280;61643;49.564;17.412;2023-09-30T07:45:04;98690.84;;;14.66;100.00
73429;BME280;61643;49.564;17.412;2023-09-30T07:47:31;98698.41;;;14.69;100.00
73429;BME280;61643;49.564;17.412;2023-09-30T07:50:00;98698.69;;;14.72;100.00
73429;BME280;61643;49.564;17.412;2023-09-30T07:52:28;98708.72;;;14.77;100.00
73429;BME280;61643;49.564;17.412;2023-09-30T07:54:54;98708.19;;;14.75;100.00
73429;BME280;61643;49.564;17.412;2023-09-30T07:57:20;98718.75;;;14.71;100.00
73429;BME280;61643;49.564;17.412;2023-09-30T07:59:46;98736.34;;;14.69;100.00
73429;BME280;61643;49.564;17.412;2023-09-30T08:02:12;98732.56;;;14.70;100.00
73429;BME280;61643;49.564;17.412;2023-09-30T08:04:38;98734.44;;;14.69;100.00
73429;BME280;61643;49.564;17.412;2023-09-30T08:07:04;98727.13;;;14.70;100.00
73429;BME280;61643;49.564;17.412;2023-09-30T08:09:30;98735.53;;;14.73;100.00
73429;BME280;61643;49.564;17.412;2023-09-30T08:11:56;98726.84;;;14.61;100.00
73429;BME280;61643;49.564;17.412;2023-09-30T08:14:22;98731.75;;;14.64;100.00
73429;BME280;61643;49.564;17.412;2023-09-30T08:16:48;98733.66;;;14.64;100.00
73429;BME280;61643;49.564;17.412;2023-09-30T08:19:15;98739.06;;;14.64;100.00
73429;BME280;61643;49.564;17.412;2023-09-30T08:21:41;98747.19;;;14.69;100.00
73429;BME280;61643;49.564;17.412;2023-09-30T08:24:07;98736.34;;;14.59;100.00
73429;BME280;61643;49.564;17.412;2023-09-30T08:26:34;98735.53;;;14.58;100.00
73429;BME280;61643;49.564;17.412;2023-09-30T08:29:01;98754.75;;;14.62;100.00
73429;BME280;61643;49.564;17.412;2023-09-30T08:31:28;98757.22;;;14.68;100.00
73429;BME280;61643;49.564;17.412;2023-09-30T08:33:54;98761.28;;;14.76;100.00
73429;BME280;61643;49.564;17.412;2023-09-30T08:36:20;98761.28;;;14.81;100.00
73429;BME280;61643;49.564;17.412;2023-09-30T08:38:46;98761.28;;;14.81;100.00
73429;BME280;61643;49.564;17.412;2023-09-30T08:41:29;98754.22;;;14.80;100.00
73429;BME280;61643;49.564;17.412;2023-09-30T08:43:59;98752.09;;;14.82;100.00
73429;BME280;61643;49.564;17.412;2023-09-30T08:46:31;98752.09;;;14.82;100.00
73429;BME280;61643;49.564;17.412;2023-09-30T08:48:59;98752.06;;;14.77;100.00
73429;BME280;61643;49.564;17.412;2023-09-30T08:51:26;98741.22;;;14.67;100.00
73429;BME280;61643;49.564;17.412;2023-09-30T08:53:55;98752.88;;;14.77;100.00
73429;BME280;61643;49.564;17.412;2023-09-30T08:56:26;98745.56;;;14.78;100.00
73429;BME280;61643;49.564;17.412;2023-09-30T08:58:58;98751.81;;;14.78;100.00
73429;BME280;61643;49.564;17.412;2023-09-30T09:01:26;98751.00;;;14.78;100.00
73429;BME280;61643;49.564;17.412;2023-09-30T09:03:53;98757.50;;;14.82;100.00
73429;BME280;61643;49.564;17.412;2023-09-30T09:06:23;98762.38;;;14.85;100.00
73429;BME280;61643;49.564;17.412;2023-09-30T09:08:50;98760.19;;;14.87;100.00
73429;BME280;61643;49.564;17.412;2023-09-30T09:11:17;98764.84;;;14.87;100.00
73429;BME280;61643;49.564;17.412;2023-09-30T09:13:48;98762.91;;;14.82;100.00
73429;BME280;61643;49.564;17.412;2023-09-30T09:16:22;98773.75;;;14.82;100.00
73429;BME280;61643;49.564;17.412;2023-09-30T09:18:49;98776.47;;;14.82;100.00
73429;BME280;61643;49.564;17.412;2023-09-30T09:21:20;98773.47;;;14.84;100.00
73429;BME280;61643;49.564;17.412;2023-09-30T09:23:49;98771.88;;;14.83;100.00
73429;BME280;61643;49.564;17.412;2023-09-30T09:26:29;98779.72;;;14.89;100.00
73429;BME280;61643;49.564;17.412;2023-09-30T09:29:00;98772.41;;;14.90;100.00
73429;BME280;61643;49.564;17.412;2023-09-30T09:31:28;98769.44;;;14.86;100.00
73429;BME280;61643;49.564;17.412;2023-09-30T09:33:55;98780.53;;;14.90;100.00
73429;BME280;61643;49.564;17.412;2023-09-30T09:36:38;98782.97;;;14.91;100.00
73429;BME280;61643;49.564;17.412;2023-09-30T09:39:05;98787.31;;;14.92;100.00
73429;BME280;61643;49.564;17.412;2023-09-30T09:41:30;98784.59;;;14.92;100.00
73429;BME280;61643;49.564;17.412;2023-09-30T09:43:59;98788.13;;;14.93;100.00
73429;BME280;61643;49.564;17.412;2023-09-30T09:46:27;98796.25;;;14.98;100.00
73429;BME280;61643;49.564;17.412;2023-09-30T09:48:53;98800.59;;;14.99;100.00
73429;BME280;61643;49.564;17.412;2023-09-30T09:51:20;98793.00;;;14.96;100.00
73429;BME280;61643;49.564;17.412;2023-09-30T09:53:48;98806.00;;;14.99;100.00
73429;BME280;61643;49.564;17.412;2023-09-30T09:56:15;98799.25;;;14.96;100.00
73429;BME280;61643;49.564;17.412;2023-09-30T09:58:42;98809.28;;;14.96;100.00
73429;BME280;61643;49.564;17.412;2023-09-30T10:01:10;98794.63;;;14.92;100.00
73429;BME280;61643;49.564;17.412;2023-09-30T10:03:38;98799.22;;;14.91;100.00
73429;BME280;61643;49.564;17.412;2023-09-30T10:06:05;98805.75;;;14.95;100.00
73429;BME280;61643;49.564;17.412;2023-09-30T10:08:43;98804.91;;;14.95;100.00
73429;BME280;61643;49.564;17.412;2023-09-30T10:11:18;98807.91;;;14.93;100.00
73429;BME280;61643;49.564;17.412;2023-09-30T10:13:51;98804.91;;;14.95;100.00
73429;BME280;61643;49.564;17.412;2023-09-30T10:19:13;98809.78;;;14.98;100.00
73429;BME280;61643;49.564;17.412;2023-09-30T10:22:33;98813.63;;;14.97;100.00
73429;BME280;61643;49.564;17.412;2023-09-30T10:24:56;98808.47;;;15.00;100.00
73429;BME280;61643;49.564;17.412;2023-09-30T10:30:09;98810.66;;;15.08;100.00
73429;BME280;61643;49.564;17.412;2023-09-30T10:40:49;98815.53;;;15.11;100.00
73429;BME280;61643;49.564;17.412;2023-09-30T10:43:38;98816.59;;;15.15;100.00
73429;BME280;61643;49.564;17.412;2023-09-30T10:48:53;98826.63;;;15.20;100.00
73429;BME280;61643;49.564;17.412;2023-09-30T10:51:20;98814.69;;;15.21;100.00
73429;BME280;61643;49.564;17.412;2023-09-30T10:53:52;98809.53;;;15.24;100.00
73429;BME280;61643;49.564;17.412;2023-09-30T10:56:20;98814.16;;;15.24;100.00
73429;BME280;61643;49.564;17.412;2023-09-30T10:58:53;98816.31;;;15.22;100.00
73429;BME280;61643;49.564;17.412;2023-09-30T11:01:23;98815.22;;;15.23;100.00
73429;BME280;61643;49.564;17.412;2023-09-30T11:03:50;98810.06;;;15.16;100.00
73429;BME280;61643;49.564;17.412;2023-09-30T11:06:20;98810.63;;;15.18;100.00
73429;BME280;61643;49.564;17.412;2023-09-30T11:08:50;98811.97;;;15.21;100.00
73429;BME280;61643;49.564;17.412;2023-09-30T11:11:16;98819.84;;;15.17;100.00
73429;BME280;61643;49.564;17.412;2023-09-30T11:13:42;98809.53;;;15.09;100.00
73429;BME280;61643;49.564;17.412;2023-09-30T11:16:08;98809.28;;;15.21;100.00
73429;BME280;61643;49.564;17.412;2023-09-30T11:18:34;98816.88;;;15.19;100.00
73429;BME280;61643;49.564;17.412;2023-09-30T11:21:08;98809.28;;;15.21;100.00
73429;BME280;61643;49.564;17.412;2023-09-30T11:23:36;98811.44;;;15.24;100.00
73429;BME280;61643;49.564;17.412;2023-09-30T11:26:02;98801.66;;;15.23;100.00
73429;BME280;61643;49.564;17.412;2023-09-30T11:28:42;98805.75;;;15.20;100.00
73429;BME280;61643;49.564;17.412;2023-09-30T11:31:11;98811.19;;;15.15;100.00
73429;BME280;61643;49.564;17.412;2023-09-30T11:33:56;98810.34;;;15.20;100.00
73429;BME280;61643;49.564;17.412;2023-09-30T11:36:26;98807.09;;;15.23;100.00
73429;BME280;61643;49.564;17.412;2023-09-30T11:38:52;98804.94;;;15.25;100.00
73429;BME280;61643;49.564;17.412;2023-09-30T11:41:18;98807.91;;;15.34;100.00
73429;BME280;61643;49.564;17.412;2023-09-30T11:44:02;98804.66;;;15.32;100.00
73429;BME280;61643;49.564;17.412;2023-09-30T11:46:50;98800.31;;;15.36;100.00
73429;BME280;61643;49.564;17.412;2023-09-30T11:49:30;98801.97;;;15.52;100.00
73429;BME280;61643;49.564;17.412;2023-09-30T11:51:59;98803.56;;;15.58;100.00
73429;BME280;61643;49.564;17.412;2023-09-30T11:54:32;98806.53;;;15.61;100.00
73429;BME280;61643;49.564;17.412;2023-09-30T11:57:00;98812.19;;;15.70;100.00
73429;BME280;61643;49.564;17.412;2023-09-30T11:59:26;98816.28;;;15.72;100.00
73429;BME280;61643;49.564;17.412;2023-09-30T12:01:52;98814.38;;;15.73;100.00
73429;BME280;61643;49.564;17.412;2023-09-30T12:04:19;98808.69;;;15.69;100.00
73429;BME280;61643;49.564;17.412;2023-09-30T12:06:45;98808.66;;;15.74;100.00
73429;BME280;61643;49.564;17.412;2023-09-30T12:09:12;98813.81;;;15.81;100.00
73429;BME280;61643;49.564;17.412;2023-09-30T12:11:39;98808.63;;;15.90;100.00
73429;BME280;61643;49.564;17.412;2023-09-30T12:14:05;98812.41;;;15.94;100.00
73429;BME280;61643;49.564;17.412;2023-09-30T12:16:32;98818.38;;;15.96;100.00
73429;BME280;61643;49.564;17.412;2023-09-30T12:18:58;98817.03;;;15.98;100.00
73429;BME280;61643;49.564;17.412;2023-09-30T12:21:24;98808.88;;;15.98;100.00
73429;BME280;61643;49.564;17.412;2023-09-30T12:23:50;98812.66;;;16.02;100.00
73429;BME280;61643;49.564;17.412;2023-09-30T12:26:17;98813.47;;;16.03;100.00
73429;BME280;61643;49.564;17.412;2023-09-30T12:28:46;98817.53;;;16.05;100.00
73429;BME280;61643;49.564;17.412;2023-09-30T12:31:12;98813.72;;;16.11;100.00
73429;BME280;61643;49.564;17.412;2023-09-30T12:33:39;98819.66;;;16.13;100.00
73429;BME280;61643;49.564;17.412;2023-09-30T12:36:06;98824.31;;;16.13;100.00
73429;BME280;61643;49.564;17.412;2023-09-30T12:38:33;98823.19;;;16.14;100.00
73429;BME280;61643;49.564;17.412;2023-09-30T12:40:59;98823.50;;;16.12;100.00
73429;BME280;61643;49.564;17.412;2023-09-30T12:43:26;98825.91;;;16.14;100.00
73429;BME280;61643;49.564;17.412;2023-09-30T12:45:52;98825.63;;;16.20;100.00
73429;BME280;61643;49.564;17.412;2023-09-30T12:48:18;98822.06;;;16.25;100.00
73429;BME280;61643;49.564;17.412;2023-09-30T12:50:44;98829.66;;;16.28;100.00
73429;BME280;61643;49.564;17.412;2023-09-30T12:53:10;98833.22;;;16.23;100.00
73429;BME280;61643;49.564;17.412;2023-09-30T12:55:36;98834.31;;;16.17;100.00
73429;BME280;61643;49.564;17.412;2023-09-30T12:58:02;98830.53;;;16.13;100.00
73429;BME280;61643;49.564;17.412;2023-09-30T13:00:28;98833.28;;;16.08;100.00